Metar Cercanos

 

LEPA - Palma De Mallorc, Spain
Distance from station: ONO 38km
Actualización: Tue, 27-Sep-2022 7:00pm CEST
Few Clouds
Few Clouds
 Viento del NO
Viento: NO 17 km/h
Temperatura: 24°C
Rocío: 14°C
Humedad: 54%
Barómetro: 1011 hPa
Clouds: Few Clouds
Visibility: 10 km
Cloud details: Few Clouds 762 m
2022/09/27 17:00 LEPA 271700Z 32009KT 260V010 9999 FEW025 24/14 Q1011 NOSIG
LEMH - Mahon/Menorca Is, Spain
Distance from station: ENE 105km
Actualización: Tue, 27-Sep-2022 7:00pm CEST
Parcialmente nuboso
Parcialmente nuboso
 Viento del NO
Viento: NO 7 km/h
Temperatura: 21°C
Rocío: 15°C
Humedad: 69%
Barómetro: 1011 hPa
Clouds: Parcialmente nuboso
Visibility: 10 km
Cloud details: Parcialmente nuboso 1067 m
2022/09/27 17:00 LEMH 271700Z 32004KT 280V350 9999 SCT035 21/15 Q1011
 
LEIB - Ibiza/Es Codola, Spain
Distance from station: OSO 165km
Actualización: Tue, 27-Sep-2022 7:00pm CEST
Despejado
Despejado
 Viento del SSO
Viento: SSO 9 km/h
Temperatura: 24°C
Rocío: 13°C
Humedad: 50%
Barómetro: 1012 hPa
Resumen: Despejado
Visibility: greater than 10 km
2022/09/27 17:00 LEIB 271700Z 21005KT 170V230 CAVOK 24/13 Q1012 NOSIG
LEBL - Barcelona Airpor, Spain
Distance from station: NNO 225km
Actualización: Tue, 27-Sep-2022 7:00pm CEST
Few Clouds
Few Clouds
 Viento del SE
Viento: SE 9 km/h
Temperatura: 23°C
Rocío: 12°C
Humedad: 50%
Barómetro: 1010 hPa
Clouds: Few Clouds
Visibility: 10 km
Cloud details: Few Clouds 914 m
2022/09/27 17:00 LEBL 271700Z 13005KT 110V170 9999 FEW030 23/12 Q1010 NOSIG
 
LEVC - Valencia (civ/Mi, Spain
Distance from station: NO 188km
Actualización: Tue, 27-Sep-2022 7:00pm CEST
Few Clouds
Few Clouds
 Viento del SE
Viento: SE 15 km/h
Temperatura: 28°C
Rocío: 10°C
Humedad: 32%
Barómetro: 1011 hPa
Clouds: Few Clouds
Visibility: 10 km
Cloud details: Few Clouds 914 m
2022/09/27 17:00 LEVC 271700Z 13008KT 9999 FEW030 28/10 Q1011 NOSIG
LEGE - Gerona/Costa Bra, Spain
Distance from station: N 276km
Actualización: Tue, 27-Sep-2022 7:00pm CEST
Parcialmente nuboso
Parcialmente nuboso
 Viento del S
Viento: S 15 km/h
Temperatura: 20°C
Rocío: 14°C
Humedad: 69%
Barómetro: 1011 hPa
Clouds: Parcialmente nuboso
Visibility: 10 km
Cloud details: Few Clouds 762 m
Parcialmente nuboso 1463 m
2022/09/27 17:00 LEGE 271700Z 18008KT 9999 FEW025TCU SCT048 20/14 Q1011
 
LEAL - Alicante/El Alte, Spain
Distance from station: OSO 344km
Actualización: Tue, 27-Sep-2022 7:00pm CEST
Despejado
Despejado
 Viento del S
Viento: S 15 km/h
Temperatura: 26°C
Rocío: 14°C
Humedad: 48%
Barómetro: 1012 hPa
Resumen: Despejado
Visibility: greater than 10 km
2022/09/27 17:00 LEAL 271700Z 19008KT 100V250 CAVOK 26/14 Q1012 NOSIG
LEAM - Almeria Airport, Spain
Distance from station: SSO 56km
Actualización: Tue, 27-Sep-2022 7:00pm CEST
Despejado
Despejado
 Viento del OSO
Viento: OSO 35 km/h
Temperatura: 24°C
Rocío: 15°C
Humedad: 57%
Barómetro: 1013 hPa
Resumen: Despejado
Visibility: greater than 10 km
2022/09/27 17:00 LEAM 271700Z 24019KT CAVOK 24/15 Q1013
 
LEZG - Zaragoza (mil/Ci, Spain
Distance from station: NO 431km
Actualización: Tue, 27-Sep-2022 7:00pm CEST
Few Clouds
Few Clouds
 Viento del NO
Viento: NO 33 km/h
Temperatura: 20°C
Rocío: 10°C
Humedad: 53%
Barómetro: 1016 hPa
Clouds: Few Clouds
Visibility: 10 km
Cloud details: Few Clouds 1981 m
2022/09/27 17:00 LEZG 271700Z 31018KT 280V340 9999 FEW065 20/10 Q1016
LEMD - Madrid/Barajas, Spain
Distance from station: ONO 234km
Actualización: Tue, 27-Sep-2022 7:00pm CEST
Despejado
Despejado
 Viento del NO
Viento: NO 4 km/h
Temperatura: 24°C
Rocío: 5°C
Humedad: 29%
Barómetro: 1016 hPa
Resumen: Despejado
Visibility: greater than 10 km
2022/09/27 17:00 LEMD 271700Z 31002KT CAVOK 24/05 Q1016 NOSIG
 
LEGR - Granada Airport, Spain
Distance from station: OSO 62km
Actualización: Tue, 27-Sep-2022 7:00pm CEST
Despejado
Despejado
 Viento del ONO
Viento: ONO 19 km/h
Temperatura: 25°C
Rocío: 3°C
Humedad: 24%
Barómetro: 1018 hPa
Resumen: Despejado
Visibility: greater than 10 km
2022/09/27 17:00 LEGR 271700Z 29010KT 250V340 CAVOK 25/03 Q1018
LEMG - Malaga (civ/Mil), Spain
Distance from station: OSO 227km
Actualización: Tue, 27-Sep-2022 7:00pm CEST
Despejado
Despejado
 Viento del ONO
Viento: ONO 19 km/h
Temperatura: 29°C
Rocío: 8°C
Humedad: 27%
Barómetro: 1015 hPa
Resumen: Despejado
Visibility: greater than 10 km
2022/09/27 17:00 LEMG 271700Z 30010KT CAVOK 29/08 Q1015 NOSIG
 
LEZL - Sevilla (civ/Mil, Spain
Distance from station: S 318km
Actualización: Tue, 27-Sep-2022 7:00pm CEST
Despejado
Despejado
 Viento del OSO
Viento: OSO 30 km/h
Temperatura: 28°C
Rocío: 7°C
Humedad: 26%
Barómetro: 1016 hPa
Resumen: Despejado
Visibility: greater than 10 km
2022/09/27 17:00 LEZL 271700Z 24016KT CAVOK 28/07 Q1016 NOSIG
LEVT - Vitoria, Spain
Distance from station: NO 226km
Actualización: Tue, 27-Sep-2022 7:00pm CEST
Muy nuboso
Muy nuboso
 Viento del NNO
Viento: NNO 19 km/h, Racha: 37 km/h
Temperatura: 15°C
Rocío: 9°C
Humedad: 68%
Barómetro: 1019 hPa
Clouds: Muy nuboso
Visibility: 10 km
Cloud details: Parcialmente nuboso 671 m
Muy nuboso 1280 m
2022/09/27 17:00 LEVT 271700Z 33010G20KT 300V010 9999 SCT022 BKN042 15/09 Q1019
 
LEBB - Bilbao/Sondica, Spain
Distance from station: NNO 235km
Actualización: Tue, 27-Sep-2022 7:00pm CEST
Muy nuboso
Muy nuboso
 Viento del ONO
Viento: ONO 24 km/h
Temperatura: 19°C
Rocío: 14°C
Humedad: 73%
Barómetro: 1018 hPa
Clouds: Muy nuboso
Visibility: 10 km
Cloud details: Few Clouds 884 m
Muy nuboso 1463 m
2022/09/27 17:00 LEBB 271700Z 29013KT 9999 FEW029 BKN048 19/14 Q1018 NOSIG
LESO - San Sebastian/Fu, Spain
Distance from station: N 231km
Actualización: Tue, 27-Sep-2022 7:00pm CEST
Lluvia débil, Mist, Muy nuboso
Lluvia débil, Mist, Muy nuboso
 Viento del ONO
Viento: ONO 15 km/h, Racha: 43 km/h
Temperatura: 18°C
Rocío: 14°C
Humedad: 78%
Barómetro: 1017 hPa
Resumen: Lluvia débil, Mist
Clouds: Muy nuboso
Visibility: 5 km
Cloud details: Parcialmente nuboso 762 m
Parcialmente nuboso 1219 m
Muy nuboso 1524 m
2022/09/27 17:00 LESO 271700Z 30008G23KT 210V020 4700 -RA BR SCT025 SCT040 BKN050 18/14 Q1017
 
LEVD - Valladolid(Mil/C, Spain
Distance from station: ONO 239km
Actualización: Tue, 27-Sep-2022 7:00pm CEST
Despejado
Despejado
 Viento del N
Viento: N 24 km/h
Temperatura: 21°C
Rocío: 3°C
Humedad: 31%
Barómetro: 1018 hPa
Resumen: Despejado
Visibility: greater than 10 km
2022/09/27 17:00 LEVD 271700Z 35013KT 320V020 CAVOK 21/03 Q1018
LESA - Salamanca (civ/M, Spain
Distance from station: ONO 349km
Actualización: Tue, 27-Sep-2022 7:00pm CEST
Despejado
Despejado
 Viento del N
Viento: N 7 km/h
Temperatura: 21°C
Rocío: 4°C
Humedad: 33%
Barómetro: 1019 hPa
Resumen: Despejado
Visibility: greater than 10 km
2022/09/27 17:00 LESA 271700Z 35004KT 300V050 CAVOK 21/04 Q1019
 
LEXJ - Santander/Paraya, Spain
Distance from station: NNO 247km
Actualización: Tue, 27-Sep-2022 7:00pm CEST
Cubierto
Cubierto
 Viento del ONO
Viento: ONO 28 km/h
Temperatura: 19°C
Rocío: 13°C
Humedad: 68%
Barómetro: 1018 hPa
Clouds: Cubierto
Visibility: 10 km
Cloud details: Few Clouds 853 m
Cubierto 1981 m
2022/09/27 17:00 LEXJ 271700Z 30015KT 270V330 9999 FEW028 OVC065 19/13 Q1018
LEAS - Asturias/Aviles, Spain
Distance from station: NO 214km
Actualización: Tue, 27-Sep-2022 7:00pm CEST
Muy nuboso
Muy nuboso
 Viento del O
Viento: O 17 km/h
Temperatura: 18°C
Rocío: 13°C
Humedad: 73%
Barómetro: 1020 hPa
Clouds: Muy nuboso
Visibility: 10 km
Cloud details: Muy nuboso 1219 m
2022/09/27 17:00 LEAS 271700Z 28009KT 250V320 9999 BKN040 18/13 Q1020 NOSIG
 
LECO - La Coruna/Alvedr, Spain
Distance from station: ONO 222km
Actualización: Tue, 27-Sep-2022 7:00pm CEST
Muy nuboso
Muy nuboso
 Viento del NO
Viento: NO 9 km/h
Temperatura: 19°C
Rocío: 14°C
Humedad: 73%
Barómetro: 1022 hPa
Clouds: Muy nuboso
Visibility: 10 km
Cloud details: Muy nuboso 732 m
Muy nuboso 1219 m
2022/09/27 17:00 LECO 271700Z 31005KT 250V010 9999 BKN024 BKN040 19/14 Q1022 NOSIG
LEVX - Vigo/Peinador, Spain
Distance from station: O 214km
Actualización: Tue, 27-Sep-2022 7:00pm CEST
Despejado
Despejado
 Viento del ONO
Viento: ONO 17 km/h
Temperatura: 20°C
Rocío: 13°C
Humedad: 64%
Barómetro: 1021 hPa
Resumen: Despejado
Visibility: greater than 10 km
2022/09/27 17:00 LEVX 271700Z 30009KT 270V330 CAVOK 20/13 Q1021 NOSIG